createdAt,value
2023-02-14T00:02:11.947Z,6.07
2023-02-14T00:04:44.362Z,5.97
2023-02-14T00:07:13.934Z,7.07
2023-02-14T00:09:43.233Z,6.78
2023-02-14T00:12:13.827Z,6.30
2023-02-14T00:15:00.733Z,6.05
2023-02-14T00:17:30.353Z,6.55
2023-02-14T00:19:59.547Z,6.93
2023-02-14T00:22:28.708Z,6.07
2023-02-14T00:24:58.266Z,6.30
2023-02-14T00:27:29.004Z,5.97
2023-02-14T00:30:02.186Z,6.60
2023-02-14T00:32:31.690Z,6.85
2023-02-14T00:35:00.908Z,6.00
2023-02-14T00:37:30.131Z,6.43
2023-02-14T00:39:59.351Z,6.18
2023-02-14T00:42:30.181Z,6.22
2023-02-14T00:44:59.549Z,5.82
2023-02-14T00:47:28.868Z,6.22
2023-02-14T00:50:02.934Z,6.50
2023-02-14T00:52:32.519Z,6.30
2023-02-14T00:55:01.859Z,5.95
2023-02-14T00:57:32.484Z,5.85
2023-02-14T01:00:01.665Z,5.47
2023-02-14T01:02:30.908Z,6.03
2023-02-14T01:05:00.393Z,5.45
2023-02-14T01:07:29.577Z,5.72
2023-02-14T01:09:58.855Z,5.88
2023-02-14T01:12:28.093Z,6.00
2023-02-14T01:14:58.853Z,6.00
2023-02-14T01:17:28.634Z,5.25
2023-02-14T01:19:58.011Z,5.45
2023-02-14T01:22:27.308Z,5.85
2023-02-14T01:24:56.586Z,6.38
2023-02-14T01:27:25.734Z,5.32
2023-02-14T01:29:58.049Z,5.63
2023-02-14T01:32:27.349Z,5.28
2023-02-14T01:34:56.547Z,5.43
2023-02-14T01:37:25.707Z,5.90
2023-02-14T01:39:54.953Z,6.18
2023-02-14T01:42:24.202Z,5.50
2023-02-14T01:45:02.954Z,5.90
2023-02-14T01:47:38.292Z,5.72
2023-02-14T01:50:12.325Z,5.82
2023-02-14T01:52:45.558Z,5.60
2023-02-14T01:55:20.547Z,5.68
2023-02-14T01:57:55.071Z,5.60
2023-02-14T02:00:43.719Z,5.47
2023-02-14T02:03:15.122Z,5.50
2023-02-14T02:05:48.892Z,5.45
2023-02-14T02:08:18.681Z,5.28
2023-02-14T02:10:47.872Z,5.20
2023-02-14T02:13:19.430Z,5.20
2023-02-14T02:16:04.690Z,5.57
2023-02-14T02:18:47.239Z,5.28
2023-02-14T02:21:54.418Z,5.40
2023-02-14T02:24:33.342Z,5.07
2023-02-14T02:27:39.473Z,5.13
2023-02-14T02:30:37.985Z,5.20
2023-02-14T02:33:46.532Z,5.75
2023-02-14T02:36:48.293Z,5.72
2023-02-14T02:39:35.769Z,4.93
2023-02-14T02:42:12.285Z,4.57
2023-02-14T02:44:50.845Z,5.32
2023-02-14T02:47:29.113Z,5.32
2023-02-14T02:50:25.226Z,5.17
2023-02-14T02:53:06.157Z,5.28
2023-02-14T02:56:00.666Z,5.10
2023-02-14T02:58:36.963Z,5.15
2023-02-14T03:01:12.055Z,5.10
2023-02-14T03:04:01.315Z,5.30
2023-02-14T03:06:32.110Z,4.85
2023-02-14T03:09:14.319Z,4.90
2023-02-14T03:11:50.951Z,5.15
2023-02-14T03:14:27.734Z,5.35
2023-02-14T03:17:04.242Z,4.97
2023-02-14T03:20:00.435Z,5.00
2023-02-14T03:22:42.770Z,5.20
2023-02-14T03:25:25.700Z,4.63
2023-02-14T03:28:00.326Z,5.20
2023-02-14T03:30:39.968Z,5.20
2023-02-14T03:33:21.766Z,4.73
2023-02-14T03:36:02.246Z,4.77
2023-02-14T03:38:37.886Z,4.93
2023-02-14T03:41:13.191Z,5.03
2023-02-14T03:43:48.838Z,5.30
2023-02-14T03:46:21.908Z,4.90
2023-02-14T03:48:54.696Z,4.83
2023-02-14T03:51:25.515Z,5.03
2023-02-14T03:53:58.423Z,4.38
2023-02-14T03:56:35.456Z,4.80
2023-02-14T03:59:10.359Z,4.73
2023-02-14T04:01:52.026Z,4.40
2023-02-14T04:04:24.214Z,4.85
2023-02-14T04:06:53.898Z,4.70
2023-02-14T04:09:23.086Z,4.38
2023-02-14T04:11:53.772Z,4.50
2023-02-14T04:14:23.017Z,4.77
2023-02-14T04:17:09.479Z,4.50
2023-02-14T04:19:38.712Z,4.60
2023-02-14T04:22:07.876Z,4.33
2023-02-14T04:24:37.217Z,4.82
2023-02-14T04:27:14.214Z,4.90
2023-02-14T04:29:46.966Z,4.70
2023-02-14T04:32:18.633Z,4.40
2023-02-14T04:34:47.991Z,4.77
2023-02-14T04:37:18.807Z,4.97
2023-02-14T04:39:48.158Z,4.17
2023-02-14T04:42:18.779Z,4.68
2023-02-14T04:44:47.969Z,4.43
2023-02-14T04:47:17.172Z,3.97
2023-02-14T04:49:46.358Z,4.50
2023-02-14T04:52:16.639Z,4.33
2023-02-14T04:54:45.853Z,4.60
2023-02-14T04:57:15.050Z,4.30
2023-02-14T04:59:45.681Z,4.23
2023-02-14T05:02:15.150Z,4.67
2023-02-14T05:04:44.305Z,4.50
2023-02-14T05:07:13.518Z,4.40
2023-02-14T05:09:42.672Z,4.30
2023-02-14T05:12:11.893Z,4.57
2023-02-14T05:14:41.339Z,4.57
2023-02-14T05:17:12.103Z,4.13
2023-02-14T05:19:41.314Z,4.00
2023-02-14T05:22:10.712Z,4.00
2023-02-14T05:24:40.453Z,4.50
2023-02-14T05:27:11.908Z,4.57
2023-02-14T05:29:41.182Z,4.63
2023-02-14T05:32:11.858Z,4.67
2023-02-14T05:34:41.113Z,4.33
2023-02-14T05:37:10.433Z,4.67
2023-02-14T05:39:39.688Z,4.65
2023-02-14T05:44:37.006Z,4.38
2023-02-14T05:47:06.483Z,4.90
2023-02-14T05:49:38.042Z,4.20
2023-02-14T05:52:07.822Z,4.67
2023-02-14T05:54:37.220Z,4.97
2023-02-14T05:57:06.548Z,4.73
2023-02-14T05:59:35.755Z,5.00
2023-02-14T06:02:05.060Z,4.88
2023-02-14T06:04:34.375Z,4.30
2023-02-14T06:07:05.439Z,4.60
2023-02-14T06:09:35.068Z,4.35
2023-02-14T06:12:04.350Z,4.35
2023-02-14T06:14:33.598Z,4.00
2023-02-14T06:17:03.031Z,4.40
2023-02-14T06:19:32.231Z,3.83
2023-02-14T06:22:01.506Z,4.10
2023-02-14T06:24:32.108Z,4.23
2023-02-14T06:27:01.514Z,4.00
2023-02-14T06:29:30.759Z,3.80
2023-02-14T06:32:06.020Z,4.27
2023-02-14T06:34:36.004Z,3.50
2023-02-14T06:37:05.277Z,4.10
2023-02-14T06:39:35.841Z,3.80
2023-02-14T06:42:05.213Z,4.03
2023-02-14T06:44:34.526Z,3.95
2023-02-14T06:47:04.593Z,4.27
2023-02-14T06:49:33.842Z,4.03
2023-02-14T06:52:03.029Z,4.40
2023-02-14T06:54:32.176Z,3.87
2023-02-14T06:57:03.014Z,4.27
2023-02-14T06:59:32.214Z,4.32
2023-02-14T07:02:01.432Z,4.13
2023-02-14T07:04:30.797Z,3.80
2023-02-14T07:07:01.579Z,4.50
2023-02-14T07:09:31.211Z,4.28
2023-02-14T07:12:00.454Z,4.47
2023-02-14T07:14:31.072Z,3.83
2023-02-14T07:17:00.389Z,3.93
2023-02-14T07:19:29.583Z,3.70
2023-02-14T07:21:58.813Z,3.67
2023-02-14T07:24:28.225Z,4.00
2023-02-14T07:26:57.540Z,4.13
2023-02-14T07:29:26.976Z,4.03
2023-02-14T07:31:57.741Z,3.97
2023-02-14T07:34:27.477Z,3.70
2023-02-14T07:36:56.728Z,3.60
2023-02-14T07:39:25.993Z,4.00
2023-02-14T07:41:55.256Z,3.70
2023-02-14T07:44:25.305Z,3.37
2023-02-14T07:46:54.800Z,3.80
2023-02-14T07:49:25.583Z,3.90
2023-02-14T07:51:54.850Z,4.00
2023-02-14T07:54:24.446Z,4.23
2023-02-14T07:56:53.796Z,3.57
2023-02-14T07:59:25.626Z,4.40
2023-02-14T08:01:55.395Z,4.30
2023-02-14T08:04:26.311Z,4.10
2023-02-14T08:06:56.082Z,4.13
2023-02-14T08:09:28.152Z,4.10
2023-02-14T08:12:16.970Z,3.80
2023-02-14T08:14:46.285Z,4.30
2023-02-14T08:17:15.494Z,4.20
2023-02-14T08:19:46.262Z,4.03
2023-02-14T08:22:18.336Z,4.67
2023-02-14T08:24:47.654Z,4.40
2023-02-14T08:27:16.832Z,4.60
2023-02-14T08:29:46.055Z,3.77
2023-02-14T08:32:16.045Z,4.27
2023-02-14T08:34:46.955Z,4.00
2023-02-14T08:37:16.228Z,4.10
2023-02-14T08:39:45.360Z,4.00
2023-02-14T08:42:14.686Z,3.97
2023-02-14T08:44:43.914Z,4.00
2023-02-14T08:47:13.222Z,3.80
2023-02-14T08:49:42.460Z,3.90
2023-02-14T08:52:13.082Z,4.10
2023-02-14T08:54:42.328Z,3.90
2023-02-14T08:57:11.677Z,4.10
2023-02-14T08:59:40.962Z,4.20
2023-02-14T09:02:14.820Z,3.93
2023-02-14T09:04:44.848Z,4.23
2023-02-14T09:07:16.340Z,3.83
2023-02-14T09:09:45.767Z,3.87
2023-02-14T09:12:15.370Z,4.27
2023-02-14T09:14:46.412Z,3.80
2023-02-14T09:17:16.786Z,3.88
2023-02-14T09:19:46.290Z,3.97
2023-02-14T09:22:17.284Z,3.63
2023-02-14T09:24:47.257Z,4.03
2023-02-14T09:27:16.828Z,4.33
2023-02-14T09:29:46.385Z,3.90
2023-02-14T09:32:17.668Z,3.73
2023-02-14T09:35:04.677Z,4.10
2023-02-14T09:37:53.024Z,3.80
2023-02-14T09:40:23.204Z,4.10
2023-02-14T09:43:03.783Z,4.40
2023-02-14T09:45:35.244Z,4.70
2023-02-14T09:48:09.708Z,3.87
2023-02-14T09:50:43.896Z,3.87
2023-02-14T09:53:26.782Z,3.90
2023-02-14T09:56:03.370Z,3.77
2023-02-14T09:58:37.290Z,4.10
2023-02-14T10:01:15.325Z,4.17
2023-02-14T10:04:03.220Z,3.77
2023-02-14T10:06:51.360Z,3.80
2023-02-14T10:09:41.888Z,3.90
2023-02-14T10:12:17.494Z,4.17
2023-02-14T10:14:47.414Z,4.60
2023-02-14T10:17:22.152Z,4.33
2023-02-14T10:19:57.382Z,4.33
2023-02-14T10:22:35.972Z,4.47
2023-02-14T10:25:17.706Z,4.17
2023-02-14T10:27:48.220Z,3.97
2023-02-14T10:30:19.872Z,4.07
2023-02-14T10:32:51.843Z,3.90
2023-02-14T10:35:33.044Z,3.90
2023-02-14T10:38:11.440Z,4.00
2023-02-14T10:41:02.161Z,4.20
2023-02-14T10:43:40.669Z,4.50
2023-02-14T10:46:28.462Z,4.20
2023-02-14T10:49:04.406Z,3.80
2023-02-14T10:51:40.752Z,4.20
2023-02-14T10:54:20.377Z,4.30
2023-02-14T10:56:58.868Z,3.97
2023-02-14T10:59:34.182Z,4.10
2023-02-14T11:02:05.685Z,4.47
2023-02-14T11:04:35.383Z,4.37
2023-02-14T11:07:04.846Z,4.30
2023-02-14T11:09:35.621Z,4.10
2023-02-14T11:12:06.956Z,4.37
2023-02-14T11:14:38.906Z,4.20
2023-02-14T11:17:30.061Z,4.30
2023-02-14T11:20:02.607Z,4.40
2023-02-14T11:22:33.085Z,3.73
2023-02-14T11:25:08.467Z,3.70
2023-02-14T11:27:39.456Z,4.23
2023-02-14T11:30:19.957Z,4.00
2023-02-14T11:32:56.445Z,4.10
2023-02-14T11:35:33.953Z,4.00
2023-02-14T11:38:05.398Z,3.90
2023-02-14T11:40:37.249Z,4.07
2023-02-14T11:43:31.253Z,4.50
2023-02-14T11:46:13.033Z,4.37
2023-02-14T11:48:57.959Z,4.23
2023-02-14T11:51:31.150Z,4.50
2023-02-14T11:54:05.880Z,4.20
2023-02-14T11:56:54.064Z,4.30
2023-02-14T11:59:31.537Z,4.63
2023-02-14T12:02:04.364Z,4.53
2023-02-14T12:04:45.608Z,4.20
2023-02-14T12:07:26.620Z,4.10
2023-02-14T12:10:21.597Z,3.90
2023-02-14T12:12:53.303Z,4.53
2023-02-14T12:15:34.227Z,3.80
2023-02-14T12:18:24.191Z,4.00
2023-02-14T12:20:59.193Z,4.20
2023-02-14T12:23:34.711Z,4.27
2023-02-14T12:26:08.654Z,3.80
2023-02-14T12:28:43.104Z,3.90
2023-02-14T12:31:15.511Z,3.93
2023-02-14T12:33:46.874Z,4.13
2023-02-14T12:36:29.466Z,3.93
2023-02-14T12:39:09.406Z,4.17
2023-02-14T12:41:50.799Z,4.10
2023-02-14T12:44:27.660Z,4.17
2023-02-14T12:47:08.805Z,4.20
2023-02-14T12:50:03.415Z,4.10
2023-02-14T12:52:57.139Z,3.90
2023-02-14T12:55:40.768Z,4.17
2023-02-14T12:58:21.435Z,4.23
2023-02-14T13:00:57.780Z,4.20
2023-02-14T13:03:50.880Z,4.10
2023-02-14T13:06:28.365Z,4.10
2023-02-14T13:09:18.780Z,4.10
2023-02-14T13:11:56.994Z,3.83
2023-02-14T13:14:43.269Z,4.00
2023-02-14T13:17:20.790Z,4.03
2023-02-14T13:20:01.787Z,4.03
2023-02-14T13:22:34.071Z,3.80
2023-02-14T13:25:07.154Z,3.70
2023-02-14T13:27:40.208Z,4.23
2023-02-14T13:30:21.066Z,4.00
2023-02-14T13:32:54.510Z,3.60
2023-02-14T13:35:27.940Z,3.80
2023-02-14T13:38:00.254Z,3.70
2023-02-14T13:40:31.044Z,4.03
2023-02-14T13:43:01.935Z,4.03
2023-02-14T13:46:07.115Z,4.00
2023-02-14T13:48:38.965Z,3.90
2023-02-14T13:51:11.583Z,3.97
2023-02-14T13:53:42.789Z,3.73
2023-02-14T13:56:41.949Z,3.97
2023-02-14T13:59:28.077Z,3.70
2023-02-14T14:02:09.185Z,3.73
2023-02-14T14:04:40.030Z,4.00
2023-02-14T14:07:34.569Z,3.90
2023-02-14T14:10:05.123Z,3.87
2023-02-14T14:12:47.024Z,3.80
2023-02-14T14:15:20.649Z,3.40
2023-02-14T14:18:06.192Z,3.60
2023-02-14T14:20:47.997Z,3.60
2023-02-14T14:23:35.366Z,3.53
2023-02-14T14:26:30.940Z,3.67
2023-02-14T14:29:01.035Z,3.33
2023-02-14T14:31:31.715Z,3.70
2023-02-14T14:34:02.630Z,3.70
2023-02-14T14:36:32.502Z,3.30
2023-02-14T14:39:03.734Z,3.80
2023-02-14T14:41:33.234Z,3.90
2023-02-14T14:44:03.506Z,4.00
2023-02-14T14:46:33.268Z,3.53
2023-02-14T14:49:05.989Z,3.80
2023-02-14T14:51:37.165Z,3.43
2023-02-14T14:54:14.922Z,3.53
2023-02-14T14:56:51.272Z,3.70
2023-02-14T14:59:29.290Z,3.53
2023-02-14T15:01:59.032Z,3.60
2023-02-14T15:04:30.450Z,3.77
2023-02-14T15:07:18.206Z,3.57
2023-02-14T15:09:49.061Z,3.73
2023-02-14T15:12:41.217Z,4.07
2023-02-14T15:15:13.927Z,3.37
2023-02-14T15:17:44.813Z,3.33
2023-02-14T15:20:19.378Z,3.63
2023-02-14T15:22:50.331Z,3.00
2023-02-14T15:25:23.994Z,3.50
2023-02-14T15:27:53.839Z,3.60
2023-02-14T15:30:26.729Z,3.30
2023-02-14T15:32:56.497Z,3.27
2023-02-14T15:35:28.992Z,3.27
2023-02-14T15:38:01.998Z,3.40
2023-02-14T15:40:34.941Z,3.37
2023-02-14T15:43:17.141Z,3.60
2023-02-14T15:45:50.362Z,3.40
2023-02-14T15:48:25.738Z,3.60
2023-02-14T15:50:58.433Z,3.73
2023-02-14T15:53:40.777Z,3.17
2023-02-14T15:56:19.837Z,3.43
2023-02-14T15:58:50.889Z,3.50
2023-02-14T16:01:22.888Z,3.43
2023-02-14T16:03:58.284Z,3.47
2023-02-14T16:06:44.498Z,3.10
2023-02-14T16:09:27.705Z,4.17
2023-02-14T16:11:58.877Z,3.50
2023-02-14T16:14:35.427Z,3.70
2023-02-14T16:17:07.239Z,3.70
2023-02-14T16:19:39.395Z,3.60
2023-02-14T16:22:10.380Z,4.50
2023-02-14T16:24:40.598Z,5.30
2023-02-14T16:27:13.458Z,11.37
2023-02-14T16:29:42.862Z,5.60
2023-02-14T16:32:18.485Z,5.07
2023-02-14T16:34:48.867Z,6.27
2023-02-14T16:37:24.367Z,5.67
2023-02-14T16:39:56.813Z,7.00
2023-02-14T16:42:27.597Z,8.80
2023-02-14T16:44:56.994Z,8.33
2023-02-14T16:47:28.006Z,8.23
2023-02-14T16:49:57.289Z,7.73
2023-02-14T16:52:29.856Z,7.00
2023-02-14T16:54:59.247Z,7.43
2023-02-14T16:57:33.515Z,7.60
2023-02-14T17:00:02.807Z,8.37
2023-02-14T17:02:32.151Z,8.50
2023-02-14T17:05:01.528Z,8.00
2023-02-14T17:07:32.573Z,8.20
2023-02-14T17:10:04.632Z,8.40
2023-02-14T17:12:39.298Z,7.60
2023-02-14T17:15:16.484Z,8.85
2023-02-14T17:17:47.623Z,9.23
2023-02-14T17:20:19.596Z,9.98
2023-02-14T17:22:49.192Z,10.30
2023-02-14T17:25:18.924Z,10.70
2023-02-14T17:27:49.739Z,11.25
2023-02-14T17:30:19.508Z,11.55
2023-02-14T17:32:49.733Z,11.35
2023-02-14T17:35:19.535Z,10.43
2023-02-14T17:37:48.989Z,11.13
2023-02-14T17:40:18.421Z,10.55
2023-02-14T17:42:49.232Z,11.20
2023-02-14T17:45:18.627Z,11.25
2023-02-14T17:47:47.930Z,11.30
2023-02-14T17:50:18.448Z,10.98
2023-02-14T17:52:47.751Z,11.30
2023-02-14T17:55:17.172Z,11.77
2023-02-14T17:57:46.481Z,12.18
2023-02-14T18:00:19.860Z,12.55
2023-02-14T18:02:49.404Z,14.43
2023-02-14T18:05:18.884Z,13.93
2023-02-14T18:07:48.332Z,12.82
2023-02-14T18:10:17.719Z,13.65
2023-02-14T18:12:47.119Z,13.38
2023-02-14T18:15:17.910Z,12.10
2023-02-14T18:17:51.047Z,12.43
2023-02-14T18:20:20.517Z,13.07
2023-02-14T18:22:49.765Z,11.23
2023-02-14T18:25:19.140Z,11.43
2023-02-14T18:27:48.908Z,10.85
2023-02-14T18:30:20.063Z,10.95
2023-02-14T18:32:49.824Z,9.90
2023-02-14T18:35:19.383Z,9.80
2023-02-14T18:37:48.712Z,9.27
2023-02-14T18:40:20.398Z,9.40
2023-02-14T18:42:49.693Z,8.13
2023-02-14T18:45:20.504Z,8.80
2023-02-14T18:47:50.037Z,8.10
2023-02-14T18:50:19.400Z,7.43
2023-02-14T18:52:48.708Z,8.15
2023-02-14T18:55:18.198Z,7.95
2023-02-14T18:57:47.576Z,7.50
2023-02-14T19:00:17.541Z,7.43
2023-02-14T19:02:48.161Z,7.10
2023-02-14T19:05:17.664Z,7.28
2023-02-14T19:07:47.238Z,7.03
2023-02-14T19:10:16.540Z,6.80
2023-02-14T19:12:45.847Z,6.70
2023-02-14T19:15:15.266Z,6.65
2023-02-14T19:17:44.683Z,6.65
2023-02-14T19:20:16.583Z,6.18
2023-02-14T19:22:45.970Z,6.43
2023-02-14T19:25:15.419Z,6.78
2023-02-14T19:27:44.998Z,7.05
2023-02-14T19:30:15.247Z,6.70
2023-02-14T19:32:44.900Z,6.00
2023-02-14T19:35:15.728Z,6.70
2023-02-14T19:37:45.161Z,6.30
2023-02-14T19:40:15.347Z,6.15
2023-02-14T19:42:44.827Z,5.90
2023-02-14T19:45:14.650Z,6.45
2023-02-14T19:47:47.383Z,6.45
2023-02-14T19:50:20.427Z,6.35
2023-02-14T19:52:51.607Z,6.93
2023-02-14T19:55:23.761Z,5.95
2023-02-14T19:57:53.300Z,5.35
2023-02-14T20:00:22.866Z,6.40
2023-02-14T20:02:53.176Z,5.25
2023-02-14T20:05:25.265Z,5.50
2023-02-14T20:07:55.702Z,5.50
2023-02-14T20:10:24.923Z,5.45
2023-02-14T20:12:54.349Z,5.30
2023-02-14T20:15:26.230Z,5.03
2023-02-14T20:17:55.604Z,6.57
2023-02-14T20:20:26.316Z,6.13
2023-02-14T20:22:55.579Z,5.57
2023-02-14T20:25:25.074Z,5.70
2023-02-14T20:27:55.641Z,5.20
2023-02-14T20:30:25.018Z,5.70
2023-02-14T20:32:54.348Z,5.25
2023-02-14T20:35:23.697Z,5.90
2023-02-14T20:37:55.086Z,5.70
2023-02-14T20:40:24.372Z,5.40
2023-02-14T20:42:53.643Z,5.93
2023-02-14T20:45:22.933Z,5.30
2023-02-14T20:47:52.449Z,5.47
2023-02-14T20:50:21.642Z,5.13
2023-02-14T20:52:50.845Z,5.70
2023-02-14T20:55:21.668Z,4.82
2023-02-14T20:57:50.874Z,4.85
2023-02-14T21:00:20.787Z,4.82
2023-02-14T21:02:50.197Z,4.85
2023-02-14T21:05:21.054Z,5.18
2023-02-14T21:07:50.440Z,4.90
2023-02-14T21:10:20.988Z,4.53
2023-02-14T21:12:52.869Z,4.82
2023-02-14T21:15:22.246Z,4.68
2023-02-14T21:17:51.550Z,4.68
2023-02-14T21:20:20.938Z,4.30
2023-02-14T21:22:50.242Z,4.93
2023-02-14T21:25:23.377Z,4.55
2023-02-14T21:27:54.289Z,4.72
2023-02-14T21:30:23.638Z,5.25
2023-02-14T21:32:53.028Z,4.90
2023-02-14T21:35:22.416Z,4.75
2023-02-14T21:37:51.660Z,4.72
2023-02-14T21:40:23.756Z,4.38
2023-02-14T21:42:53.907Z,4.65
2023-02-14T21:45:40.618Z,4.80
2023-02-14T21:48:27.289Z,4.70
2023-02-14T21:50:56.523Z,4.88
2023-02-14T21:53:25.708Z,5.05
2023-02-14T21:55:56.362Z,4.75
2023-02-14T21:58:25.538Z,4.70
2023-02-14T22:00:54.713Z,5.03
2023-02-14T22:03:23.951Z,4.82
2023-02-14T22:05:53.334Z,4.68
2023-02-14T22:08:22.580Z,5.05
2023-02-14T22:10:51.762Z,4.65
2023-02-14T22:13:22.333Z,4.60
2023-02-14T22:15:51.935Z,4.65
2023-02-14T22:18:21.128Z,4.57
2023-02-14T22:20:54.995Z,5.13
2023-02-14T22:23:28.863Z,4.70
2023-02-14T22:25:58.569Z,4.90
2023-02-14T22:28:29.158Z,4.50
2023-02-14T22:31:01.528Z,4.80
2023-02-14T22:33:31.377Z,5.20
2023-02-14T22:36:01.446Z,4.45
2023-02-14T22:38:31.182Z,4.22
2023-02-14T22:41:06.438Z,4.38
2023-02-14T22:43:37.924Z,4.57
2023-02-14T22:46:09.121Z,4.80
2023-02-14T22:48:39.894Z,4.78
2023-02-14T22:51:13.247Z,5.00
2023-02-14T22:53:42.613Z,4.40
2023-02-14T22:56:17.301Z,4.50
2023-02-14T22:58:48.265Z,4.63
2023-02-14T23:01:19.289Z,4.50
2023-02-14T23:03:49.339Z,4.60
2023-02-14T23:06:18.511Z,4.63
2023-02-14T23:08:48.715Z,4.40
2023-02-14T23:11:20.584Z,4.60
2023-02-14T23:14:08.576Z,4.55
2023-02-14T23:16:55.241Z,4.28
2023-02-14T23:19:43.407Z,4.57
2023-02-14T23:22:15.336Z,4.20
2023-02-14T23:24:44.944Z,4.65
2023-02-14T23:27:14.234Z,4.90
2023-02-14T23:29:44.900Z,4.10
2023-02-14T23:32:14.410Z,4.50
2023-02-14T23:34:45.636Z,4.45
2023-02-14T23:37:15.412Z,4.68
2023-02-14T23:39:44.605Z,4.97
2023-02-14T23:42:15.066Z,5.05
2023-02-14T23:44:46.853Z,4.32
2023-02-14T23:47:16.398Z,4.85
2023-02-14T23:49:46.195Z,4.10
2023-02-14T23:52:15.984Z,4.90
2023-02-14T23:54:45.158Z,4.70
2023-02-14T23:57:14.358Z,4.68
2023-02-14T23:59:44.948Z,4.70
